sensor_id;sensor_type;location;lat;lon;timestamp;pressure;altitude;pressure_sealevel;temperature;humidity
64713;BME280;51140;45.340;5.980;2023-04-25T00:00:40;96780.44;;;11.10;100.00
64713;BME280;51140;45.340;5.980;2023-04-25T00:03:05;96723.34;;;11.07;100.00
64713;BME280;51140;45.340;5.980;2023-04-25T00:05:30;96734.00;;;11.04;100.00
64713;BME280;51140;45.340;5.980;2023-04-25T00:07:57;96777.81;;;10.99;100.00
64713;BME280;51140;45.340;5.980;2023-04-25T00:10:23;96782.91;;;11.01;100.00
64713;BME280;51140;45.340;5.980;2023-04-25T00:12:48;96769.28;;;10.97;100.00
64713;BME280;51140;45.340;5.980;2023-04-25T00:15:14;96725.22;;;10.94;100.00
64713;BME280;51140;45.340;5.980;2023-04-25T00:17:40;96733.88;;;10.94;100.00
64713;BME280;51140;45.340;5.980;2023-04-25T00:20:06;96776.16;;;10.98;100.00
64713;BME280;51140;45.340;5.980;2023-04-25T00:22:34;96778.28;;;10.93;100.00
64713;BME280;51140;45.340;5.980;2023-04-25T00:24:59;96746.19;;;11.04;100.00
64713;BME280;51140;45.340;5.980;2023-04-25T00:27:26;96774.25;;;11.00;100.00
64713;BME280;51140;45.340;5.980;2023-04-25T00:29:51;96798.28;;;10.92;100.00
64713;BME280;51140;45.340;5.980;2023-04-25T00:32:17;96871.56;;;10.88;100.00
64713;BME280;51140;45.340;5.980;2023-04-25T00:34:42;96940.19;;;10.99;100.00
64713;BME280;51140;45.340;5.980;2023-04-25T00:37:07;96916.00;;;10.97;100.00
64713;BME280;51140;45.340;5.980;2023-04-25T00:39:33;96918.88;;;11.06;100.00
64713;BME280;51140;45.340;5.980;2023-04-25T00:41:58;96934.88;;;11.01;100.00
64713;BME280;51140;45.340;5.980;2023-04-25T00:44:24;96924.72;;;10.85;100.00
64713;BME280;51140;45.340;5.980;2023-04-25T00:46:52;96907.00;;;10.90;100.00
64713;BME280;51140;45.340;5.980;2023-04-25T00:49:17;96973.78;;;10.91;100.00
64713;BME280;51140;45.340;5.980;2023-04-25T00:51:43;96946.28;;;10.87;100.00
64713;BME280;51140;45.340;5.980;2023-04-25T00:54:12;96956.63;;;10.76;100.00
64713;BME280;51140;45.340;5.980;2023-04-25T00:56:38;96992.19;;;10.64;100.00
64713;BME280;51140;45.340;5.980;2023-04-25T00:59:03;97017.19;;;10.67;100.00
64713;BME280;51140;45.340;5.980;2023-04-25T01:01:29;97028.44;;;10.67;100.00
64713;BME280;51140;45.340;5.980;2023-04-25T01:03:56;97093.75;;;10.64;100.00
64713;BME280;51140;45.340;5.980;2023-04-25T01:06:23;97119.19;;;10.61;100.00
64713;BME280;51140;45.340;5.980;2023-04-25T01:08:48;97225.13;;;10.60;100.00
64713;BME280;51140;45.340;5.980;2023-04-25T01:11:14;97298.31;;;10.43;100.00
64713;BME280;51140;45.340;5.980;2023-04-25T01:13:40;97321.84;;;10.42;100.00
64713;BME280;51140;45.340;5.980;2023-04-25T01:16:05;97373.44;;;10.49;100.00
64713;BME280;51140;45.340;5.980;2023-04-25T01:18:31;97405.59;;;10.48;100.00
64713;BME280;51140;45.340;5.980;2023-04-25T01:21:03;97460.09;;;10.51;100.00
64713;BME280;51140;45.340;5.980;2023-04-25T01:23:32;97517.63;;;10.18;100.00
64713;BME280;51140;45.340;5.980;2023-04-25T01:25:58;97569.03;;;10.15;100.00
64713;BME280;51140;45.340;5.980;2023-04-25T01:28:24;97588.81;;;10.17;100.00
64713;BME280;51140;45.340;5.980;2023-04-25T01:30:50;97554.16;;;10.17;100.00
64713;BME280;51140;45.340;5.980;2023-04-25T01:33:17;97542.56;;;10.22;100.00
64713;BME280;51140;45.340;5.980;2023-04-25T01:35:44;97525.94;;;10.25;100.00
64713;BME280;51140;45.340;5.980;2023-04-25T01:38:09;97454.91;;;10.23;100.00
64713;BME280;51140;45.340;5.980;2023-04-25T01:40:38;97244.06;;;10.50;100.00
64713;BME280;51140;45.340;5.980;2023-04-25T01:43:06;97148.00;;;10.32;100.00
64713;BME280;51140;45.340;5.980;2023-04-25T01:45:31;97155.28;;;10.27;100.00
64713;BME280;51140;45.340;5.980;2023-04-25T01:47:58;97112.75;;;10.14;100.00
64713;BME280;51140;45.340;5.980;2023-04-25T01:50:25;97073.63;;;10.16;100.00
64713;BME280;51140;45.340;5.980;2023-04-25T01:52:50;97042.81;;;10.10;100.00
64713;BME280;51140;45.340;5.980;2023-04-25T01:55:16;97002.75;;;10.12;100.00
64713;BME280;51140;45.340;5.980;2023-04-25T01:57:41;96948.31;;;10.22;100.00
64713;BME280;51140;45.340;5.980;2023-04-25T02:00:07;96896.59;;;10.04;100.00
64713;BME280;51140;45.340;5.980;2023-04-25T02:02:34;96880.78;;;10.08;100.00
64713;BME280;51140;45.340;5.980;2023-04-25T02:05:00;96914.81;;;10.04;100.00
64713;BME280;51140;45.340;5.980;2023-04-25T02:07:26;97009.94;;;10.09;100.00
64713;BME280;51140;45.340;5.980;2023-04-25T02:09:51;96995.31;;;9.93;100.00
64713;BME280;51140;45.340;5.980;2023-04-25T02:12:17;97068.41;;;10.03;100.00
64713;BME280;51140;45.340;5.980;2023-04-25T02:14:42;97131.88;;;10.00;100.00
64713;BME280;51140;45.340;5.980;2023-04-25T02:17:07;97135.13;;;10.04;100.00
64713;BME280;51140;45.340;5.980;2023-04-25T02:19:33;97102.72;;;9.95;100.00
64713;BME280;51140;45.340;5.980;2023-04-25T02:21:58;97067.22;;;9.82;100.00
64713;BME280;51140;45.340;5.980;2023-04-25T02:24:23;97077.16;;;10.02;100.00
64713;BME280;51140;45.340;5.980;2023-04-25T02:26:49;97069.88;;;10.20;100.00
64713;BME280;51140;45.340;5.980;2023-04-25T02:29:15;97058.00;;;10.03;100.00
64713;BME280;51140;45.340;5.980;2023-04-25T02:31:40;97038.50;;;9.83;100.00
64713;BME280;51140;45.340;5.980;2023-04-25T02:34:06;97044.84;;;9.92;100.00
64713;BME280;51140;45.340;5.980;2023-04-25T02:36:31;97015.72;;;9.87;100.00
64713;BME280;51140;45.340;5.980;2023-04-25T02:39:00;97077.88;;;10.04;100.00
64713;BME280;51140;45.340;5.980;2023-04-25T02:41:26;97079.66;;;10.03;100.00
64713;BME280;51140;45.340;5.980;2023-04-25T02:43:51;97044.91;;;10.04;100.00
64713;BME280;51140;45.340;5.980;2023-04-25T02:46:16;96994.34;;;10.21;100.00
64713;BME280;51140;45.340;5.980;2023-04-25T02:48:42;96988.78;;;10.13;100.00
64713;BME280;51140;45.340;5.980;2023-04-25T02:51:07;96999.31;;;10.12;100.00
64713;BME280;51140;45.340;5.980;2023-04-25T02:53:32;96990.97;;;10.19;100.00
64713;BME280;51140;45.340;5.980;2023-04-25T02:55:58;97017.31;;;10.15;100.00
64713;BME280;51140;45.340;5.980;2023-04-25T02:58:24;97044.59;;;10.09;100.00
64713;BME280;51140;45.340;5.980;2023-04-25T03:00:50;97010.22;;;9.91;100.00
64713;BME280;51140;45.340;5.980;2023-04-25T03:03:15;97008.56;;;10.03;100.00
64713;BME280;51140;45.340;5.980;2023-04-25T03:05:43;97011.38;;;10.13;100.00
64713;BME280;51140;45.340;5.980;2023-04-25T03:08:09;97030.75;;;10.34;100.00
64713;BME280;51140;45.340;5.980;2023-04-25T03:10:34;97033.88;;;10.26;100.00
64713;BME280;51140;45.340;5.980;2023-04-25T03:12:59;97032.44;;;10.22;100.00
64713;BME280;51140;45.340;5.980;2023-04-25T03:15:25;97053.66;;;10.29;100.00
64713;BME280;51140;45.340;5.980;2023-04-25T03:17:50;97030.94;;;10.18;100.00
64713;BME280;51140;45.340;5.980;2023-04-25T03:20:15;96997.44;;;10.14;100.00
64713;BME280;51140;45.340;5.980;2023-04-25T03:22:41;96958.19;;;10.04;100.00
64713;BME280;51140;45.340;5.980;2023-04-25T03:25:07;96935.41;;;9.95;100.00
64713;BME280;51140;45.340;5.980;2023-04-25T03:27:33;96930.53;;;10.03;100.00
64713;BME280;51140;45.340;5.980;2023-04-25T03:29:58;96986.41;;;10.10;100.00
64713;BME280;51140;45.340;5.980;2023-04-25T03:32:23;97041.25;;;10.20;100.00
64713;BME280;51140;45.340;5.980;2023-04-25T03:34:49;97050.22;;;10.28;100.00
64713;BME280;51140;45.340;5.980;2023-04-25T03:37:14;97017.53;;;10.24;100.00
64713;BME280;51140;45.340;5.980;2023-04-25T03:39:39;97018.28;;;10.26;100.00
64713;BME280;51140;45.340;5.980;2023-04-25T03:42:05;96915.72;;;10.16;100.00
64713;BME280;51140;45.340;5.980;2023-04-25T03:44:30;96911.78;;;10.11;100.00
64713;BME280;51140;45.340;5.980;2023-04-25T03:46:55;96880.75;;;10.20;100.00
64713;BME280;51140;45.340;5.980;2023-04-25T03:49:21;96877.00;;;10.24;100.00
64713;BME280;51140;45.340;5.980;2023-04-25T03:51:46;96879.06;;;10.19;100.00
64713;BME280;51140;45.340;5.980;2023-04-25T03:54:11;96887.41;;;10.12;100.00
64713;BME280;51140;45.340;5.980;2023-04-25T03:56:37;96896.06;;;10.25;100.00
64713;BME280;51140;45.340;5.980;2023-04-25T03:59:02;96816.22;;;10.13;100.00
64713;BME280;51140;45.340;5.980;2023-04-25T04:01:28;96787.16;;;10.19;100.00
64713;BME280;51140;45.340;5.980;2023-04-25T04:03:53;96787.47;;;10.27;100.00
64713;BME280;51140;45.340;5.980;2023-04-25T04:06:19;96829.16;;;10.38;100.00
64713;BME280;51140;45.340;5.980;2023-04-25T04:08:46;96831.75;;;10.38;100.00
64713;BME280;51140;45.340;5.980;2023-04-25T04:11:11;96836.94;;;10.14;100.00
64713;BME280;51140;45.340;5.980;2023-04-25T04:13:36;96810.41;;;9.96;100.00
64713;BME280;51140;45.340;5.980;2023-04-25T04:16:02;96817.00;;;10.02;100.00
64713;BME280;51140;45.340;5.980;2023-04-25T04:18:29;96837.72;;;9.78;100.00
64713;BME280;51140;45.340;5.980;2023-04-25T04:20:54;96837.50;;;9.81;100.00
64713;BME280;51140;45.340;5.980;2023-04-25T04:23:20;96829.25;;;10.00;100.00
64713;BME280;51140;45.340;5.980;2023-04-25T04:25:46;96834.25;;;10.03;100.00
64713;BME280;51140;45.340;5.980;2023-04-25T04:28:13;96898.25;;;10.05;100.00
64713;BME280;51140;45.340;5.980;2023-04-25T04:30:39;96957.38;;;10.03;100.00
64713;BME280;51140;45.340;5.980;2023-04-25T04:33:04;96956.41;;;9.92;100.00
64713;BME280;51140;45.340;5.980;2023-04-25T04:35:30;96950.91;;;9.84;100.00
64713;BME280;51140;45.340;5.980;2023-04-25T04:37:55;96976.28;;;9.93;100.00
64713;BME280;51140;45.340;5.980;2023-04-25T04:40:21;96986.59;;;9.94;100.00
64713;BME280;51140;45.340;5.980;2023-04-25T04:42:47;96983.25;;;9.92;100.00
64713;BME280;51140;45.340;5.980;2023-04-25T04:45:12;96978.78;;;9.94;100.00
64713;BME280;51140;45.340;5.980;2023-04-25T04:47:38;97034.06;;;10.11;100.00
64713;BME280;51140;45.340;5.980;2023-04-25T04:50:06;97059.38;;;10.09;100.00
64713;BME280;51140;45.340;5.980;2023-04-25T04:52:33;97024.09;;;10.04;100.00
64713;BME280;51140;45.340;5.980;2023-04-25T04:54:59;97026.13;;;9.99;100.00
64713;BME280;51140;45.340;5.980;2023-04-25T04:57:25;97010.72;;;9.96;100.00
64713;BME280;51140;45.340;5.980;2023-04-25T04:59:50;96953.59;;;9.95;100.00
64713;BME280;51140;45.340;5.980;2023-04-25T05:02:16;96946.63;;;9.95;100.00
64713;BME280;51140;45.340;5.980;2023-04-25T05:04:41;96931.13;;;9.81;100.00
64713;BME280;51140;45.340;5.980;2023-04-25T05:07:07;96859.44;;;10.02;100.00
64713;BME280;51140;45.340;5.980;2023-04-25T05:09:32;96724.94;;;10.16;100.00
64713;BME280;51140;45.340;5.980;2023-04-25T05:11:58;96655.63;;;10.15;100.00
64713;BME280;51140;45.340;5.980;2023-04-25T05:14:23;96664.09;;;10.29;100.00
64713;BME280;51140;45.340;5.980;2023-04-25T05:16:49;96700.66;;;10.39;100.00
64713;BME280;51140;45.340;5.980;2023-04-25T05:19:14;96736.38;;;10.13;100.00
64713;BME280;51140;45.340;5.980;2023-04-25T05:21:39;96771.78;;;10.16;100.00
64713;BME280;51140;45.340;5.980;2023-04-25T05:24:05;96783.56;;;10.09;100.00
64713;BME280;51140;45.340;5.980;2023-04-25T05:26:30;96829.44;;;10.22;100.00
64713;BME280;51140;45.340;5.980;2023-04-25T05:28:57;96930.06;;;10.34;100.00
64713;BME280;51140;45.340;5.980;2023-04-25T05:31:22;96971.63;;;10.23;100.00
64713;BME280;51140;45.340;5.980;2023-04-25T05:33:48;97031.81;;;10.44;100.00
64713;BME280;51140;45.340;5.980;2023-04-25T05:36:13;96997.44;;;10.39;100.00
64713;BME280;51140;45.340;5.980;2023-04-25T05:38:38;96954.44;;;10.46;100.00
64713;BME280;51140;45.340;5.980;2023-04-25T05:41:04;96796.34;;;10.48;100.00
64713;BME280;51140;45.340;5.980;2023-04-25T05:43:29;96695.09;;;10.79;100.00
64713;BME280;51140;45.340;5.980;2023-04-25T05:45:55;96743.91;;;10.88;100.00
64713;BME280;51140;45.340;5.980;2023-04-25T05:48:20;96572.44;;;11.04;100.00
64713;BME280;51140;45.340;5.980;2023-04-25T05:50:45;96542.81;;;11.05;100.00
64713;BME280;51140;45.340;5.980;2023-04-25T05:53:11;96485.50;;;11.05;100.00
64713;BME280;51140;45.340;5.980;2023-04-25T05:55:36;96439.13;;;11.20;100.00
64713;BME280;51140;45.340;5.980;2023-04-25T05:58:02;96392.84;;;11.12;100.00
64713;BME280;51140;45.340;5.980;2023-04-25T06:00:27;96469.00;;;11.16;100.00
64713;BME280;51140;45.340;5.980;2023-04-25T06:02:52;96523.13;;;11.12;100.00
64713;BME280;51140;45.340;5.980;2023-04-25T06:05:18;96600.13;;;11.16;100.00
64713;BME280;51140;45.340;5.980;2023-04-25T06:07:43;96603.69;;;11.26;100.00
64713;BME280;51140;45.340;5.980;2023-04-25T06:10:09;96622.19;;;11.23;100.00
64713;BME280;51140;45.340;5.980;2023-04-25T06:12:35;96654.13;;;11.48;100.00
64713;BME280;51140;45.340;5.980;2023-04-25T06:15:00;96632.94;;;11.41;100.00
64713;BME280;51140;45.340;5.980;2023-04-25T06:17:26;96588.19;;;11.03;100.00
64713;BME280;51140;45.340;5.980;2023-04-25T06:19:51;96556.13;;;10.91;100.00
64713;BME280;51140;45.340;5.980;2023-04-25T06:22:16;96543.78;;;10.93;100.00
64713;BME280;51140;45.340;5.980;2023-04-25T06:24:42;96570.31;;;10.98;100.00
64713;BME280;51140;45.340;5.980;2023-04-25T06:27:07;96645.72;;;10.66;100.00
64713;BME280;51140;45.340;5.980;2023-04-25T06:29:32;96752.72;;;10.63;100.00
64713;BME280;51140;45.340;5.980;2023-04-25T06:31:58;96856.78;;;10.64;100.00
64713;BME280;51140;45.340;5.980;2023-04-25T06:34:23;96917.03;;;10.47;100.00
64713;BME280;51140;45.340;5.980;2023-04-25T06:36:49;97015.09;;;10.72;100.00
64713;BME280;51140;45.340;5.980;2023-04-25T06:39:14;97100.69;;;11.02;100.00
64713;BME280;51140;45.340;5.980;2023-04-25T06:41:40;97208.34;;;11.41;100.00
64713;BME280;51140;45.340;5.980;2023-04-25T06:44:06;97271.78;;;11.28;100.00
64713;BME280;51140;45.340;5.980;2023-04-25T06:46:31;97253.41;;;11.43;100.00
64713;BME280;51140;45.340;5.980;2023-04-25T06:48:56;97203.84;;;11.43;100.00
64713;BME280;51140;45.340;5.980;2023-04-25T06:51:22;97207.63;;;11.75;100.00
64713;BME280;51140;45.340;5.980;2023-04-25T06:53:49;97194.91;;;11.83;100.00
64713;BME280;51140;45.340;5.980;2023-04-25T06:56:15;97170.44;;;11.48;100.00
64713;BME280;51140;45.340;5.980;2023-04-25T06:58:41;97121.06;;;11.34;100.00
64713;BME280;51140;45.340;5.980;2023-04-25T07:01:06;97078.53;;;11.20;100.00
64713;BME280;51140;45.340;5.980;2023-04-25T07:03:31;97039.25;;;10.87;100.00
64713;BME280;51140;45.340;5.980;2023-04-25T07:05:57;97089.25;;;10.79;100.00
64713;BME280;51140;45.340;5.980;2023-04-25T07:08:22;97015.28;;;10.82;100.00
64713;BME280;51140;45.340;5.980;2023-04-25T07:10:47;97029.41;;;11.03;100.00
64713;BME280;51140;45.340;5.980;2023-04-25T07:13:13;97174.19;;;11.07;100.00
64713;BME280;51140;45.340;5.980;2023-04-25T07:15:38;97269.00;;;10.66;100.00
64713;BME280;51140;45.340;5.980;2023-04-25T07:18:04;97336.03;;;10.09;100.00
64713;BME280;51140;45.340;5.980;2023-04-25T07:20:29;97455.06;;;10.20;100.00
64713;BME280;51140;45.340;5.980;2023-04-25T07:22:56;97547.34;;;10.44;100.00
64713;BME280;51140;45.340;5.980;2023-04-25T07:25:22;97601.84;;;10.61;100.00
64713;BME280;51140;45.340;5.980;2023-04-25T07:27:47;97667.69;;;10.78;100.00
64713;BME280;51140;45.340;5.980;2023-04-25T07:30:13;97736.69;;;11.01;100.00
64713;BME280;51140;45.340;5.980;2023-04-25T07:32:39;97786.97;;;11.03;100.00
64713;BME280;51140;45.340;5.980;2023-04-25T07:35:05;97865.78;;;11.22;100.00
64713;BME280;51140;45.340;5.980;2023-04-25T07:37:32;97882.56;;;11.02;100.00
64713;BME280;51140;45.340;5.980;2023-04-25T07:39:57;97834.03;;;10.85;100.00
64713;BME280;51140;45.340;5.980;2023-04-25T07:42:23;97722.59;;;10.75;100.00
64713;BME280;51140;45.340;5.980;2023-04-25T07:44:48;97658.75;;;10.67;100.00
64713;BME280;51140;45.340;5.980;2023-04-25T07:47:13;97628.34;;;10.54;100.00
64713;BME280;51140;45.340;5.980;2023-04-25T07:49:39;97626.28;;;10.59;100.00
64713;BME280;51140;45.340;5.980;2023-04-25T07:52:05;97643.88;;;10.55;100.00
64713;BME280;51140;45.340;5.980;2023-04-25T07:54:34;97735.53;;;10.76;100.00
64713;BME280;51140;45.340;5.980;2023-04-25T07:56:59;97892.72;;;11.07;100.00
64713;BME280;51140;45.340;5.980;2023-04-25T07:59:25;97900.88;;;11.01;100.00
64713;BME280;51140;45.340;5.980;2023-04-25T08:01:50;97868.78;;;11.00;100.00
64713;BME280;51140;45.340;5.980;2023-04-25T08:04:16;97761.72;;;10.89;100.00
64713;BME280;51140;45.340;5.980;2023-04-25T08:06:41;97696.00;;;10.98;100.00
64713;BME280;51140;45.340;5.980;2023-04-25T08:09:07;97654.75;;;11.19;100.00
64713;BME280;51140;45.340;5.980;2023-04-25T08:11:34;97590.44;;;11.46;100.00
64713;BME280;51140;45.340;5.980;2023-04-25T08:13:59;97511.19;;;11.88;100.00
64713;BME280;51140;45.340;5.980;2023-04-25T08:16:25;97333.78;;;12.00;100.00
64713;BME280;51140;45.340;5.980;2023-04-25T08:18:50;97159.25;;;12.19;100.00
64713;BME280;51140;45.340;5.980;2023-04-25T08:21:15;96981.75;;;12.41;100.00
64713;BME280;51140;45.340;5.980;2023-04-25T08:23:41;96795.63;;;12.92;100.00
64713;BME280;51140;45.340;5.980;2023-04-25T08:26:06;96819.94;;;12.72;100.00
64713;BME280;51140;45.340;5.980;2023-04-25T08:28:32;96759.66;;;12.64;100.00
64713;BME280;51140;45.340;5.980;2023-04-25T08:30:57;96750.53;;;12.58;100.00
64713;BME280;51140;45.340;5.980;2023-04-25T08:33:23;96746.19;;;12.47;100.00
64713;BME280;51140;45.340;5.980;2023-04-25T08:35:48;96640.16;;;12.03;100.00
64713;BME280;51140;45.340;5.980;2023-04-25T08:38:14;96632.25;;;11.28;100.00
64713;BME280;51140;45.340;5.980;2023-04-25T08:40:40;96662.75;;;11.71;100.00
64713;BME280;51140;45.340;5.980;2023-04-25T08:43:06;96723.50;;;12.16;100.00
64713;BME280;51140;45.340;5.980;2023-04-25T08:45:38;96694.66;;;12.49;100.00
64713;BME280;51140;45.340;5.980;2023-04-25T08:48:06;96607.75;;;12.68;100.00
64713;BME280;51140;45.340;5.980;2023-04-25T08:50:32;96551.06;;;12.99;100.00
64713;BME280;51140;45.340;5.980;2023-04-25T08:53:00;96524.53;;;13.13;100.00
64713;BME280;51140;45.340;5.980;2023-04-25T08:55:29;96473.69;;;12.77;100.00
64713;BME280;51140;45.340;5.980;2023-04-25T08:57:56;96434.69;;;12.95;100.00
64713;BME280;51140;45.340;5.980;2023-04-25T09:00:22;96451.66;;;13.68;100.00
64713;BME280;51140;45.340;5.980;2023-04-25T09:02:48;96371.00;;;13.44;100.00
64713;BME280;51140;45.340;5.980;2023-04-25T09:05:13;96368.97;;;13.29;100.00
64713;BME280;51140;45.340;5.980;2023-04-25T09:07:39;96354.88;;;13.49;100.00
64713;BME280;51140;45.340;5.980;2023-04-25T09:10:05;96347.69;;;14.45;100.00
64713;BME280;51140;45.340;5.980;2023-04-25T09:12:31;96325.38;;;15.29;100.00
64713;BME280;51140;45.340;5.980;2023-04-25T09:15:10;96322.16;;;14.64;100.00
64713;BME280;51140;45.340;5.980;2023-04-25T09:17:35;96320.72;;;14.25;100.00
64713;BME280;51140;45.340;5.980;2023-04-25T09:20:14;96325.03;;;13.89;100.00
64713;BME280;51140;45.340;5.980;2023-04-25T09:22:40;96339.47;;;13.46;100.00
64713;BME280;51140;45.340;5.980;2023-04-25T09:25:10;96339.56;;;13.73;100.00
64713;BME280;51140;45.340;5.980;2023-04-25T09:27:36;96364.00;;;13.35;100.00
64713;BME280;51140;45.340;5.980;2023-04-25T09:30:02;96376.78;;;13.48;100.00
64713;BME280;51140;45.340;5.980;2023-04-25T09:32:28;96393.69;;;13.73;100.00
64713;BME280;51140;45.340;5.980;2023-04-25T09:34:57;96395.91;;;14.52;100.00
64713;BME280;51140;45.340;5.980;2023-04-25T09:37:28;96525.63;;;14.93;100.00
64713;BME280;51140;45.340;5.980;2023-04-25T09:39:58;96655.25;;;14.71;100.00
64713;BME280;51140;45.340;5.980;2023-04-25T09:42:30;96769.00;;;14.30;100.00
64713;BME280;51140;45.340;5.980;2023-04-25T09:44:58;96796.00;;;14.11;100.00
64713;BME280;51140;45.340;5.980;2023-04-25T09:47:25;96798.41;;;13.93;100.00
64713;BME280;51140;45.340;5.980;2023-04-25T09:49:51;96961.47;;;13.42;100.00
64713;BME280;51140;45.340;5.980;2023-04-25T09:52:20;96965.66;;;13.34;100.00
64713;BME280;51140;45.340;5.980;2023-04-25T09:54:47;96861.13;;;13.11;100.00
64713;BME280;51140;45.340;5.980;2023-04-25T09:57:15;96846.56;;;13.30;100.00
64713;BME280;51140;45.340;5.980;2023-04-25T09:59:46;96795.50;;;13.56;100.00
64713;BME280;51140;45.340;5.980;2023-04-25T10:02:13;96867.09;;;13.55;100.00
64713;BME280;51140;45.340;5.980;2023-04-25T10:04:40;96891.06;;;13.81;100.00
64713;BME280;51140;45.340;5.980;2023-04-25T10:07:07;96790.91;;;14.19;100.00
64713;BME280;51140;45.340;5.980;2023-04-25T10:09:34;96924.75;;;15.35;100.00
64713;BME280;51140;45.340;5.980;2023-04-25T10:12:02;97211.31;;;15.59;100.00
64713;BME280;51140;45.340;5.980;2023-04-25T10:14:30;97200.03;;;15.48;100.00
64713;BME280;51140;45.340;5.980;2023-04-25T10:16:57;97303.69;;;15.12;100.00
64713;BME280;51140;45.340;5.980;2023-04-25T10:19:24;97549.31;;;14.34;100.00
64713;BME280;51140;45.340;5.980;2023-04-25T10:21:52;97514.53;;;14.21;100.00
64713;BME280;51140;45.340;5.980;2023-04-25T10:24:19;97447.84;;;14.03;100.00
64713;BME280;51140;45.340;5.980;2023-04-25T10:26:46;97470.81;;;14.33;100.00
64713;BME280;51140;45.340;5.980;2023-04-25T10:29:12;97367.78;;;15.30;100.00
64713;BME280;51140;45.340;5.980;2023-04-25T10:31:47;97364.84;;;15.95;100.00
64713;BME280;51140;45.340;5.980;2023-04-25T10:34:12;97492.25;;;16.01;100.00
64713;BME280;51140;45.340;5.980;2023-04-25T10:36:38;97595.03;;;15.76;100.00
64713;BME280;51140;45.340;5.980;2023-04-25T10:39:07;97607.34;;;16.28;100.00
64713;BME280;51140;45.340;5.980;2023-04-25T10:41:47;97630.84;;;16.82;100.00
64713;BME280;51140;45.340;5.980;2023-04-25T10:44:13;97666.88;;;16.71;100.00
64713;BME280;51140;45.340;5.980;2023-04-25T10:46:39;97679.13;;;16.81;100.00
64713;BME280;51140;45.340;5.980;2023-04-25T10:49:04;97755.78;;;15.23;100.00
64713;BME280;51140;45.340;5.980;2023-04-25T10:51:34;97766.09;;;15.02;100.00
64713;BME280;51140;45.340;5.980;2023-04-25T10:54:04;97751.34;;;15.57;100.00
64713;BME280;51140;45.340;5.980;2023-04-25T10:56:42;97769.13;;;16.53;100.00
64713;BME280;51140;45.340;5.980;2023-04-25T10:59:19;97788.78;;;15.15;100.00
64713;BME280;51140;45.340;5.980;2023-04-25T11:01:51;97808.41;;;15.44;100.00
64713;BME280;51140;45.340;5.980;2023-04-25T11:09:35;97831.13;;;15.79;100.00
64713;BME280;51140;45.340;5.980;2023-04-25T11:12:00;97866.03;;;15.46;100.00
64713;BME280;51140;45.340;5.980;2023-04-25T11:14:26;97873.22;;;15.20;100.00
64713;BME280;51140;45.340;5.980;2023-04-25T11:16:59;97861.75;;;15.56;100.00
64713;BME280;51140;45.340;5.980;2023-04-25T11:19:26;97838.78;;;15.71;100.00
64713;BME280;51140;45.340;5.980;2023-04-25T11:21:55;97854.41;;;15.83;100.00
64713;BME280;51140;45.340;5.980;2023-04-25T11:24:32;97880.81;;;15.47;100.00
64713;BME280;51140;45.340;5.980;2023-04-25T11:26:58;97858.19;;;16.35;100.00
64713;BME280;51140;45.340;5.980;2023-04-25T11:29:28;97897.47;;;16.70;100.00
64713;BME280;51140;45.340;5.980;2023-04-25T11:31:54;97889.59;;;16.70;100.00
64713;BME280;51140;45.340;5.980;2023-04-25T11:34:23;97913.47;;;16.78;100.00
64713;BME280;51140;45.340;5.980;2023-04-25T11:36:50;97940.66;;;16.23;100.00
64713;BME280;51140;45.340;5.980;2023-04-25T11:39:17;97957.25;;;16.23;100.00
64713;BME280;51140;45.340;5.980;2023-04-25T11:41:43;97939.81;;;16.56;100.00
64713;BME280;51140;45.340;5.980;2023-04-25T11:44:08;97948.19;;;16.05;100.00
64713;BME280;51140;45.340;5.980;2023-04-25T11:46:34;97970.16;;;16.15;100.00
64713;BME280;51140;45.340;5.980;2023-04-25T11:49:00;97966.69;;;16.26;100.00
64713;BME280;51140;45.340;5.980;2023-04-25T11:51:25;97956.66;;;16.31;100.00
64713;BME280;51140;45.340;5.980;2023-04-25T11:53:51;97970.94;;;15.82;100.00
64713;BME280;51140;45.340;5.980;2023-04-25T11:56:17;97967.06;;;16.55;100.00
64713;BME280;51140;45.340;5.980;2023-04-25T11:59:03;97987.16;;;16.67;100.00
64713;BME280;51140;45.340;5.980;2023-04-25T12:01:30;97993.72;;;16.84;100.00
64713;BME280;51140;45.340;5.980;2023-04-25T12:03:56;97996.19;;;17.08;100.00
64713;BME280;51140;45.340;5.980;2023-04-25T12:06:26;98009.31;;;17.19;100.00
64713;BME280;51140;45.340;5.980;2023-04-25T12:09:04;98005.63;;;17.10;100.00
64713;BME280;51140;45.340;5.980;2023-04-25T12:11:35;98007.78;;;16.38;100.00
64713;BME280;51140;45.340;5.980;2023-04-25T12:14:05;98006.34;;;16.34;100.00
64713;BME280;51140;45.340;5.980;2023-04-25T12:16:40;98010.56;;;16.92;100.00
64713;BME280;51140;45.340;5.980;2023-04-25T12:19:06;98022.75;;;17.05;100.00
64713;BME280;51140;45.340;5.980;2023-04-25T12:21:32;98006.53;;;17.32;100.00
64713;BME280;51140;45.340;5.980;2023-04-25T12:24:12;98018.31;;;17.05;100.00
64713;BME280;51140;45.340;5.980;2023-04-25T12:26:48;98010.94;;;17.42;100.00
64713;BME280;51140;45.340;5.980;2023-04-25T12:29:19;97997.31;;;17.37;100.00
64713;BME280;51140;45.340;5.980;2023-04-25T12:31:45;98010.78;;;17.44;100.00
64713;BME280;51140;45.340;5.980;2023-04-25T12:34:11;98013.84;;;17.60;100.00
64713;BME280;51140;45.340;5.980;2023-04-25T12:36:37;98020.94;;;17.48;100.00
64713;BME280;51140;45.340;5.980;2023-04-25T12:39:02;98020.69;;;17.51;100.00
64713;BME280;51140;45.340;5.980;2023-04-25T12:41:29;98037.66;;;17.27;100.00
64713;BME280;51140;45.340;5.980;2023-04-25T12:43:55;98013.63;;;17.09;100.00
64713;BME280;51140;45.340;5.980;2023-04-25T12:46:20;98021.84;;;17.38;100.00
64713;BME280;51140;45.340;5.980;2023-04-25T12:48:46;98025.22;;;17.17;100.00
64713;BME280;51140;45.340;5.980;2023-04-25T12:51:11;98020.72;;;16.52;100.00